sensor_id;sensor_type;location;lat;lon;timestamp;P1;P2;P0
51258;PMS7003;37327;54.254;18.504;2023-03-14T00:01:26;4;2;2
51258;PMS7003;37327;54.254;18.504;2023-03-14T00:04:44;8;7;6
51258;PMS7003;37327;54.254;18.504;2023-03-14T00:08:01;9;8;6
51258;PMS7003;37327;54.254;18.504;2023-03-14T00:11:19;6;5;5
51258;PMS7003;37327;54.254;18.504;2023-03-14T00:14:42;10;7;7
51258;PMS7003;37327;54.254;18.504;2023-03-14T00:18:00;8;6;5
51258;PMS7003;37327;54.254;18.504;2023-03-14T00:21:18;5;5;5
51258;PMS7003;37327;54.254;18.504;2023-03-14T00:24:35;8;6;6
51258;PMS7003;37327;54.254;18.504;2023-03-14T00:27:53;8;7;6
51258;PMS7003;37327;54.254;18.504;2023-03-14T00:31:11;7;6;5
51258;PMS7003;37327;54.254;18.504;2023-03-14T00:34:31;7;7;6
51258;PMS7003;37327;54.254;18.504;2023-03-14T00:37:49;5;5;5
51258;PMS7003;37327;54.254;18.504;2023-03-14T00:41:07;6;5;5
51258;PMS7003;37327;54.254;18.504;2023-03-14T00:44:27;5;4;3
51258;PMS7003;37327;54.254;18.504;2023-03-14T00:47:45;7;5;5
51258;PMS7003;37327;54.254;18.504;2023-03-14T00:51:03;4;4;4
51258;PMS7003;37327;54.254;18.504;2023-03-14T00:54:21;7;5;3
51258;PMS7003;37327;54.254;18.504;2023-03-14T00:57:39;5;5;5
51258;PMS7003;37327;54.254;18.504;2023-03-14T01:00:56;7;6;5
51258;PMS7003;37327;54.254;18.504;2023-03-14T01:04:14;5;5;5
51258;PMS7003;37327;54.254;18.504;2023-03-14T01:07:32;5;5;5
51258;PMS7003;37327;54.254;18.504;2023-03-14T01:10:50;6;6;5
51258;PMS7003;37327;54.254;18.504;2023-03-14T01:14:06;5;5;5
51258;PMS7003;37327;54.254;18.504;2023-03-14T01:17:24;5;5;4
51258;PMS7003;37327;54.254;18.504;2023-03-14T01:20:42;7;5;4
51258;PMS7003;37327;54.254;18.504;2023-03-14T01:24:00;7;6;5
51258;PMS7003;37327;54.254;18.504;2023-03-14T01:27:19;6;5;4
51258;PMS7003;37327;54.254;18.504;2023-03-14T01:30:36;7;7;6
51258;PMS7003;37327;54.254;18.504;2023-03-14T01:33:53;8;5;5
51258;PMS7003;37327;54.254;18.504;2023-03-14T01:37:11;5;5;4
51258;PMS7003;37327;54.254;18.504;2023-03-14T01:40:28;5;5;5
51258;PMS7003;37327;54.254;18.504;2023-03-14T01:43:45;4;4;4
51258;PMS7003;37327;54.254;18.504;2023-03-14T01:47:03;5;5;5
51258;PMS7003;37327;54.254;18.504;2023-03-14T01:50:23;3;3;2
51258;PMS7003;37327;54.254;18.504;2023-03-14T01:53:40;3;3;2
51258;PMS7003;37327;54.254;18.504;2023-03-14T02:00:30;7;6;5
51258;PMS7003;37327;54.254;18.504;2023-03-14T02:07:16;4;4;4
51258;PMS7003;37327;54.254;18.504;2023-03-14T02:10:41;6;4;3
51258;PMS7003;37327;54.254;18.504;2023-03-14T02:14:00;5;5;4
51258;PMS7003;37327;54.254;18.504;2023-03-14T02:17:19;4;3;3
51258;PMS7003;37327;54.254;18.504;2023-03-14T02:27:35;5;5;4
51258;PMS7003;37327;54.254;18.504;2023-03-14T02:30:54;3;3;3
51258;PMS7003;37327;54.254;18.504;2023-03-14T02:34:11;4;4;3
51258;PMS7003;37327;54.254;18.504;2023-03-14T02:40:57;5;4;4
51258;PMS7003;37327;54.254;18.504;2023-03-14T02:44:15;7;4;4
51258;PMS7003;37327;54.254;18.504;2023-03-14T02:47:34;5;5;4
51258;PMS7003;37327;54.254;18.504;2023-03-14T02:50:56;4;4;4
51258;PMS7003;37327;54.254;18.504;2023-03-14T02:54:15;4;3;2
51258;PMS7003;37327;54.254;18.504;2023-03-14T02:57:33;4;4;4
51258;PMS7003;37327;54.254;18.504;2023-03-14T03:00:50;5;3;3
51258;PMS7003;37327;54.254;18.504;2023-03-14T03:04:07;5;4;4
51258;PMS7003;37327;54.254;18.504;2023-03-14T03:07:24;3;3;3
51258;PMS7003;37327;54.254;18.504;2023-03-14T03:10:42;4;4;3
51258;PMS7003;37327;54.254;18.504;2023-03-14T03:13:59;4;3;2
51258;PMS7003;37327;54.254;18.504;2023-03-14T03:17:16;2;2;1
51258;PMS7003;37327;54.254;18.504;2023-03-14T03:20:34;2;2;2
51258;PMS7003;37327;54.254;18.504;2023-03-14T03:23:51;4;2;2
51258;PMS7003;37327;54.254;18.504;2023-03-14T03:27:09;3;3;3
51258;PMS7003;37327;54.254;18.504;2023-03-14T03:30:26;2;2;2
51258;PMS7003;37327;54.254;18.504;2023-03-14T03:33:43;1;1;0
51258;PMS7003;37327;54.254;18.504;2023-03-14T03:37:01;2;1;1
51258;PMS7003;37327;54.254;18.504;2023-03-14T03:40:18;6;3;2
51258;PMS7003;37327;54.254;18.504;2023-03-14T03:43:35;3;2;2
51258;PMS7003;37327;54.254;18.504;2023-03-14T03:46:53;0;0;0
51258;PMS7003;37327;54.254;18.504;2023-03-14T03:50:10;3;2;1
51258;PMS7003;37327;54.254;18.504;2023-03-14T03:53:27;2;2;1
51258;PMS7003;37327;54.254;18.504;2023-03-14T03:56:45;1;1;1
51258;PMS7003;37327;54.254;18.504;2023-03-14T04:00:02;4;2;1
51258;PMS7003;37327;54.254;18.504;2023-03-14T04:03:22;2;2;1
51258;PMS7003;37327;54.254;18.504;2023-03-14T04:06:39;3;1;0
51258;PMS7003;37327;54.254;18.504;2023-03-14T04:09:58;2;2;1
51258;PMS7003;37327;54.254;18.504;2023-03-14T04:13:15;2;1;1
51258;PMS7003;37327;54.254;18.504;2023-03-14T04:16:32;4;1;1
51258;PMS7003;37327;54.254;18.504;2023-03-14T04:19:50;2;2;1
51258;PMS7003;37327;54.254;18.504;2023-03-14T04:23:10;2;1;1
51258;PMS7003;37327;54.254;18.504;2023-03-14T04:26:27;2;1;1
51258;PMS7003;37327;54.254;18.504;2023-03-14T04:29:44;1;1;0
51258;PMS7003;37327;54.254;18.504;2023-03-14T04:33:02;3;2;1
51258;PMS7003;37327;54.254;18.504;2023-03-14T04:36:20;1;1;1
51258;PMS7003;37327;54.254;18.504;2023-03-14T04:39:37;0;0;0
51258;PMS7003;37327;54.254;18.504;2023-03-14T04:42:55;2;2;2
51258;PMS7003;37327;54.254;18.504;2023-03-14T04:46:13;1;1;1
51258;PMS7003;37327;54.254;18.504;2023-03-14T04:49:30;1;1;1
51258;PMS7003;37327;54.254;18.504;2023-03-14T04:52:47;0;0;0
51258;PMS7003;37327;54.254;18.504;2023-03-14T04:56:05;3;2;1
51258;PMS7003;37327;54.254;18.504;2023-03-14T04:59:24;2;1;1
51258;PMS7003;37327;54.254;18.504;2023-03-14T05:02:42;1;1;1
51258;PMS7003;37327;54.254;18.504;2023-03-14T05:05:59;1;0;0
51258;PMS7003;37327;54.254;18.504;2023-03-14T05:09:17;1;1;1
51258;PMS7003;37327;54.254;18.504;2023-03-14T05:12:34;1;1;1
51258;PMS7003;37327;54.254;18.504;2023-03-14T05:15:52;1;0;0
51258;PMS7003;37327;54.254;18.504;2023-03-14T05:19:11;1;0;0
51258;PMS7003;37327;54.254;18.504;2023-03-14T05:22:29;1;1;1
51258;PMS7003;37327;54.254;18.504;2023-03-14T05:25:46;1;1;1
51258;PMS7003;37327;54.254;18.504;2023-03-14T05:29:03;0;0;0
51258;PMS7003;37327;54.254;18.504;2023-03-14T05:32:20;1;0;0
51258;PMS7003;37327;54.254;18.504;2023-03-14T05:35:37;0;0;0
51258;PMS7003;37327;54.254;18.504;2023-03-14T05:38:55;0;0;0
51258;PMS7003;37327;54.254;18.504;2023-03-14T05:42:12;0;0;0
51258;PMS7003;37327;54.254;18.504;2023-03-14T05:45:30;0;0;0
51258;PMS7003;37327;54.254;18.504;2023-03-14T05:48:47;1;1;1
51258;PMS7003;37327;54.254;18.504;2023-03-14T05:52:04;0;0;0
51258;PMS7003;37327;54.254;18.504;2023-03-14T05:55:22;4;1;1
51258;PMS7003;37327;54.254;18.504;2023-03-14T05:58:39;2;1;1
51258;PMS7003;37327;54.254;18.504;2023-03-14T06:01:57;0;0;0
51258;PMS7003;37327;54.254;18.504;2023-03-14T06:05:14;1;1;0
51258;PMS7003;37327;54.254;18.504;2023-03-14T06:08:32;0;0;0
51258;PMS7003;37327;54.254;18.504;2023-03-14T06:11:50;1;1;1
51258;PMS7003;37327;54.254;18.504;2023-03-14T06:15:08;0;0;0
51258;PMS7003;37327;54.254;18.504;2023-03-14T06:18:27;0;0;0
51258;PMS7003;37327;54.254;18.504;2023-03-14T06:21:44;0;0;0
51258;PMS7003;37327;54.254;18.504;2023-03-14T06:25:02;0;0;0
51258;PMS7003;37327;54.254;18.504;2023-03-14T06:28:20;0;0;0
51258;PMS7003;37327;54.254;18.504;2023-03-14T06:31:37;0;0;0
51258;PMS7003;37327;54.254;18.504;2023-03-14T06:34:55;0;0;0
51258;PMS7003;37327;54.254;18.504;2023-03-14T06:38:16;0;0;0
51258;PMS7003;37327;54.254;18.504;2023-03-14T06:41:33;0;0;0
51258;PMS7003;37327;54.254;18.504;2023-03-14T06:44:50;0;0;0
51258;PMS7003;37327;54.254;18.504;2023-03-14T06:48:08;0;0;0
51258;PMS7003;37327;54.254;18.504;2023-03-14T06:51:25;1;1;0
51258;PMS7003;37327;54.254;18.504;2023-03-14T06:54:42;0;0;0
51258;PMS7003;37327;54.254;18.504;2023-03-14T06:58:00;1;1;0
51258;PMS7003;37327;54.254;18.504;2023-03-14T07:01:20;1;1;1
51258;PMS7003;37327;54.254;18.504;2023-03-14T07:04:41;0;0;0
51258;PMS7003;37327;54.254;18.504;2023-03-14T07:07:59;1;0;0
51258;PMS7003;37327;54.254;18.504;2023-03-14T07:11:16;0;0;0
51258;PMS7003;37327;54.254;18.504;2023-03-14T07:14:33;0;0;0
51258;PMS7003;37327;54.254;18.504;2023-03-14T07:17:50;0;0;0
51258;PMS7003;37327;54.254;18.504;2023-03-14T07:21:08;1;1;0
51258;PMS7003;37327;54.254;18.504;2023-03-14T07:24:26;0;0;0
51258;PMS7003;37327;54.254;18.504;2023-03-14T07:27:44;1;1;1
51258;PMS7003;37327;54.254;18.504;2023-03-14T07:31:03;1;1;1
51258;PMS7003;37327;54.254;18.504;2023-03-14T07:34:21;0;0;0
51258;PMS7003;37327;54.254;18.504;2023-03-14T07:37:39;1;1;1
51258;PMS7003;37327;54.254;18.504;2023-03-14T07:40:59;3;2;1
51258;PMS7003;37327;54.254;18.504;2023-03-14T07:44:17;2;2;2
51258;PMS7003;37327;54.254;18.504;2023-03-14T07:47:32;1;1;1
51258;PMS7003;37327;54.254;18.504;2023-03-14T07:50:49;1;1;1
51258;PMS7003;37327;54.254;18.504;2023-03-14T07:54:06;1;1;1
51258;PMS7003;37327;54.254;18.504;2023-03-14T07:57:24;2;2;2
51258;PMS7003;37327;54.254;18.504;2023-03-14T08:00:42;2;2;2
51258;PMS7003;37327;54.254;18.504;2023-03-14T08:03:59;3;3;2
51258;PMS7003;37327;54.254;18.504;2023-03-14T08:07:17;3;2;2
51258;PMS7003;37327;54.254;18.504;2023-03-14T08:10:34;3;2;1
51258;PMS7003;37327;54.254;18.504;2023-03-14T08:13:51;1;1;1
51258;PMS7003;37327;54.254;18.504;2023-03-14T08:17:08;2;2;1
51258;PMS7003;37327;54.254;18.504;2023-03-14T08:20:27;2;0;0
51258;PMS7003;37327;54.254;18.504;2023-03-14T08:23:45;1;1;1
51258;PMS7003;37327;54.254;18.504;2023-03-14T08:27:03;1;1;1
51258;PMS7003;37327;54.254;18.504;2023-03-14T08:30:21;2;2;1
51258;PMS7003;37327;54.254;18.504;2023-03-14T08:33:38;3;2;1
51258;PMS7003;37327;54.254;18.504;2023-03-14T08:36:56;1;1;1
51258;PMS7003;37327;54.254;18.504;2023-03-14T08:40:13;2;2;2
51258;PMS7003;37327;54.254;18.504;2023-03-14T08:43:33;3;3;3
51258;PMS7003;37327;54.254;18.504;2023-03-14T08:46:51;2;2;2
51258;PMS7003;37327;54.254;18.504;2023-03-14T08:50:09;2;2;2
51258;PMS7003;37327;54.254;18.504;2023-03-14T08:53:27;2;2;2
51258;PMS7003;37327;54.254;18.504;2023-03-14T08:56:44;1;1;1
51258;PMS7003;37327;54.254;18.504;2023-03-14T09:00:02;1;1;1
51258;PMS7003;37327;54.254;18.504;2023-03-14T09:03:30;3;3;3
51258;PMS7003;37327;54.254;18.504;2023-03-14T09:06:48;1;1;1
51258;PMS7003;37327;54.254;18.504;2023-03-14T09:10:06;2;2;2
51258;PMS7003;37327;54.254;18.504;2023-03-14T09:13:24;2;2;2
51258;PMS7003;37327;54.254;18.504;2023-03-14T09:16:41;1;1;1
51258;PMS7003;37327;54.254;18.504;2023-03-14T09:19:58;1;1;1
51258;PMS7003;37327;54.254;18.504;2023-03-14T09:23:15;2;2;2
51258;PMS7003;37327;54.254;18.504;2023-03-14T09:26:33;2;2;2
51258;PMS7003;37327;54.254;18.504;2023-03-14T09:29:50;2;2;2
51258;PMS7003;37327;54.254;18.504;2023-03-14T09:33:07;4;2;2
51258;PMS7003;37327;54.254;18.504;2023-03-14T09:36:25;3;3;3
51258;PMS7003;37327;54.254;18.504;2023-03-14T09:39:42;3;3;2
51258;PMS7003;37327;54.254;18.504;2023-03-14T09:42:59;3;3;3
51258;PMS7003;37327;54.254;18.504;2023-03-14T09:46:17;4;4;4
51258;PMS7003;37327;54.254;18.504;2023-03-14T09:49:44;3;3;3
51258;PMS7003;37327;54.254;18.504;2023-03-14T09:53:05;4;4;3
51258;PMS7003;37327;54.254;18.504;2023-03-14T09:56:26;2;2;2
51258;PMS7003;37327;54.254;18.504;2023-03-14T09:59:48;2;2;2
51258;PMS7003;37327;54.254;18.504;2023-03-14T10:06:35;4;4;3
51258;PMS7003;37327;54.254;18.504;2023-03-14T10:09:52;3;3;3
51258;PMS7003;37327;54.254;18.504;2023-03-14T10:13:14;3;3;3
51258;PMS7003;37327;54.254;18.504;2023-03-14T10:16:43;3;3;3
51258;PMS7003;37327;54.254;18.504;2023-03-14T10:20:02;4;4;3
51258;PMS7003;37327;54.254;18.504;2023-03-14T10:23:24;2;2;1
51258;PMS7003;37327;54.254;18.504;2023-03-14T10:26:49;5;4;3
51258;PMS7003;37327;54.254;18.504;2023-03-14T10:30:14;2;2;2
51258;PMS7003;37327;54.254;18.504;2023-03-14T10:33:36;4;4;3
51258;PMS7003;37327;54.254;18.504;2023-03-14T10:36:58;2;2;2
51258;PMS7003;37327;54.254;18.504;2023-03-14T10:40:24;4;4;3
51258;PMS7003;37327;54.254;18.504;2023-03-14T10:47:21;3;3;3
51258;PMS7003;37327;54.254;18.504;2023-03-14T10:51:02;3;3;3
51258;PMS7003;37327;54.254;18.504;2023-03-14T10:54:14;3;3;3
51258;PMS7003;37327;54.254;18.504;2023-03-14T10:57:41;3;3;2
51258;PMS7003;37327;54.254;18.504;2023-03-14T11:01:06;3;3;3
51258;PMS7003;37327;54.254;18.504;2023-03-14T11:08:04;6;3;3
51258;PMS7003;37327;54.254;18.504;2023-03-14T11:11:28;3;3;2
51258;PMS7003;37327;54.254;18.504;2023-03-14T11:14:46;3;3;3
51258;PMS7003;37327;54.254;18.504;2023-03-14T11:25:21;2;2;2
51258;PMS7003;37327;54.254;18.504;2023-03-14T11:28:50;2;2;2
51258;PMS7003;37327;54.254;18.504;2023-03-14T11:32:13;2;2;2
51258;PMS7003;37327;54.254;18.504;2023-03-14T11:39:11;2;2;2
51258;PMS7003;37327;54.254;18.504;2023-03-14T11:42:32;3;2;2
51258;PMS7003;37327;54.254;18.504;2023-03-14T11:45:50;3;2;2
51258;PMS7003;37327;54.254;18.504;2023-03-14T12:03:12;2;1;1
51258;PMS7003;37327;54.254;18.504;2023-03-14T12:06:57;3;2;2
51258;PMS7003;37327;54.254;18.504;2023-03-14T12:10:04;3;2;2
51258;PMS7003;37327;54.254;18.504;2023-03-14T12:13:22;3;3;2
51258;PMS7003;37327;54.254;18.504;2023-03-14T12:16:46;2;2;2
51258;PMS7003;37327;54.254;18.504;2023-03-14T12:20:15;2;2;2
51258;PMS7003;37327;54.254;18.504;2023-03-14T12:27:02;3;3;3
51258;PMS7003;37327;54.254;18.504;2023-03-14T12:30:26;2;2;1
51258;PMS7003;37327;54.254;18.504;2023-03-14T12:34:00;2;2;2
51258;PMS7003;37327;54.254;18.504;2023-03-14T12:37:25;2;2;2
51258;PMS7003;37327;54.254;18.504;2023-03-14T12:40:57;2;2;1
51258;PMS7003;37327;54.254;18.504;2023-03-14T12:54:54;1;1;1
51258;PMS7003;37327;54.254;18.504;2023-03-14T12:58:23;1;0;0
51258;PMS7003;37327;54.254;18.504;2023-03-14T13:05:19;1;1;0
51258;PMS7003;37327;54.254;18.504;2023-03-14T13:15:33;2;1;0
51258;PMS7003;37327;54.254;18.504;2023-03-14T13:22:27;1;1;0
51258;PMS7003;37327;54.254;18.504;2023-03-14T13:25:47;1;0;0
51258;PMS7003;37327;54.254;18.504;2023-03-14T13:32:39;1;1;1
51258;PMS7003;37327;54.254;18.504;2023-03-14T13:36:02;1;1;1
51258;PMS7003;37327;54.254;18.504;2023-03-14T13:39:22;1;1;1
51258;PMS7003;37327;54.254;18.504;2023-03-14T13:42:42;1;0;0
51258;PMS7003;37327;54.254;18.504;2023-03-14T13:49:30;0;0;0
51258;PMS7003;37327;54.254;18.504;2023-03-14T13:52:55;0;0;0
51258;PMS7003;37327;54.254;18.504;2023-03-14T13:56:14;0;0;0
51258;PMS7003;37327;54.254;18.504;2023-03-14T13:59:32;0;0;0
51258;PMS7003;37327;54.254;18.504;2023-03-14T14:02:52;1;1;0
51258;PMS7003;37327;54.254;18.504;2023-03-14T14:09:41;1;0;0
51258;PMS7003;37327;54.254;18.504;2023-03-14T14:13:03;0;0;0
51258;PMS7003;37327;54.254;18.504;2023-03-14T14:16:24;0;0;0
51258;PMS7003;37327;54.254;18.504;2023-03-14T14:19:45;1;0;0
51258;PMS7003;37327;54.254;18.504;2023-03-14T14:23:04;0;0;0
51258;PMS7003;37327;54.254;18.504;2023-03-14T14:26:28;0;0;0
51258;PMS7003;37327;54.254;18.504;2023-03-14T14:29:56;1;1;1
51258;PMS7003;37327;54.254;18.504;2023-03-14T14:36:39;2;2;1
51258;PMS7003;37327;54.254;18.504;2023-03-14T14:40:09;1;1;0
51258;PMS7003;37327;54.254;18.504;2023-03-14T14:43:34;1;1;0
51258;PMS7003;37327;54.254;18.504;2023-03-14T14:46:55;1;1;1
51258;PMS7003;37327;54.254;18.504;2023-03-14T14:53:43;1;1;1
51258;PMS7003;37327;54.254;18.504;2023-03-14T14:57:02;3;1;1
51258;PMS7003;37327;54.254;18.504;2023-03-14T15:00:25;2;2;1
51258;PMS7003;37327;54.254;18.504;2023-03-14T15:03:45;3;2;1
51258;PMS7003;37327;54.254;18.504;2023-03-14T15:07:05;2;2;2
51258;PMS7003;37327;54.254;18.504;2023-03-14T15:10:25;2;1;1
51258;PMS7003;37327;54.254;18.504;2023-03-14T15:13:43;1;1;1
51258;PMS7003;37327;54.254;18.504;2023-03-14T15:17:00;1;0;0
51258;PMS7003;37327;54.254;18.504;2023-03-14T15:20:18;1;1;0
51258;PMS7003;37327;54.254;18.504;2023-03-14T15:23:40;1;1;0
51258;PMS7003;37327;54.254;18.504;2023-03-14T15:26:58;0;0;0
51258;PMS7003;37327;54.254;18.504;2023-03-14T15:30:16;2;1;1
51258;PMS7003;37327;54.254;18.504;2023-03-14T15:33:34;0;0;0
51258;PMS7003;37327;54.254;18.504;2023-03-14T15:36:51;0;0;0
51258;PMS7003;37327;54.254;18.504;2023-03-14T15:40:10;0;0;0
51258;PMS7003;37327;54.254;18.504;2023-03-14T15:43:30;0;0;0
51258;PMS7003;37327;54.254;18.504;2023-03-14T15:46:47;0;0;0
51258;PMS7003;37327;54.254;18.504;2023-03-14T15:50:05;0;0;0
51258;PMS7003;37327;54.254;18.504;2023-03-14T15:53:26;1;1;0
51258;PMS7003;37327;54.254;18.504;2023-03-14T15:56:44;0;0;0
51258;PMS7003;37327;54.254;18.504;2023-03-14T16:00:01;1;1;0
51258;PMS7003;37327;54.254;18.504;2023-03-14T16:03:22;1;1;1
51258;PMS7003;37327;54.254;18.504;2023-03-14T16:06:40;1;1;0
51258;PMS7003;37327;54.254;18.504;2023-03-14T16:10:00;1;1;0
51258;PMS7003;37327;54.254;18.504;2023-03-14T16:13:17;1;0;0
51258;PMS7003;37327;54.254;18.504;2023-03-14T16:16:35;0;0;0
51258;PMS7003;37327;54.254;18.504;2023-03-14T16:19:53;2;1;1
51258;PMS7003;37327;54.254;18.504;2023-03-14T16:24:02;1;1;1
51258;PMS7003;37327;54.254;18.504;2023-03-14T16:27:22;1;1;1
51258;PMS7003;37327;54.254;18.504;2023-03-14T16:30:39;1;1;1
51258;PMS7003;37327;54.254;18.504;2023-03-14T16:34:00;1;1;1
51258;PMS7003;37327;54.254;18.504;2023-03-14T16:37:19;1;1;0
51258;PMS7003;37327;54.254;18.504;2023-03-14T16:40:39;2;2;1
51258;PMS7003;37327;54.254;18.504;2023-03-14T16:43:59;3;3;2
51258;PMS7003;37327;54.254;18.504;2023-03-14T16:47:18;4;3;2
51258;PMS7003;37327;54.254;18.504;2023-03-14T16:50:35;4;4;3
51258;PMS7003;37327;54.254;18.504;2023-03-14T16:53:55;6;6;4
51258;PMS7003;37327;54.254;18.504;2023-03-14T16:57:13;2;2;2
51258;PMS7003;37327;54.254;18.504;2023-03-14T17:00:30;2;1;1
51258;PMS7003;37327;54.254;18.504;2023-03-14T17:03:49;2;1;1
51258;PMS7003;37327;54.254;18.504;2023-03-14T17:07:07;1;1;1
51258;PMS7003;37327;54.254;18.504;2023-03-14T17:10:25;2;2;1
51258;PMS7003;37327;54.254;18.504;2023-03-14T17:13:43;1;1;1
51258;PMS7003;37327;54.254;18.504;2023-03-14T17:17:00;2;1;1
51258;PMS7003;37327;54.254;18.504;2023-03-14T17:20:18;2;1;0
51258;PMS7003;37327;54.254;18.504;2023-03-14T17:23:35;1;1;1
51258;PMS7003;37327;54.254;18.504;2023-03-14T17:26:54;1;1;1
51258;PMS7003;37327;54.254;18.504;2023-03-14T17:30:11;1;1;1
51258;PMS7003;37327;54.254;18.504;2023-03-14T17:33:30;2;2;2
51258;PMS7003;37327;54.254;18.504;2023-03-14T17:36:48;2;2;2
51258;PMS7003;37327;54.254;18.504;2023-03-14T17:40:06;2;2;2
51258;PMS7003;37327;54.254;18.504;2023-03-14T17:43:24;4;3;2
51258;PMS7003;37327;54.254;18.504;2023-03-14T17:46:42;6;6;5
51258;PMS7003;37327;54.254;18.504;2023-03-14T17:50:00;6;6;5
51258;PMS7003;37327;54.254;18.504;2023-03-14T17:53:20;6;4;4
51258;PMS7003;37327;54.254;18.504;2023-03-14T17:56:37;11;10;8
51258;PMS7003;37327;54.254;18.504;2023-03-14T17:59:55;11;11;9
51258;PMS7003;37327;54.254;18.504;2023-03-14T18:03:12;13;11;7
51258;PMS7003;37327;54.254;18.504;2023-03-14T18:06:29;9;8;6
51258;PMS7003;37327;54.254;18.504;2023-03-14T18:09:47;8;6;5
51258;PMS7003;37327;54.254;18.504;2023-03-14T18:13:05;5;5;4
51258;PMS7003;37327;54.254;18.504;2023-03-14T18:16:22;2;2;1
51258;PMS7003;37327;54.254;18.504;2023-03-14T18:19:40;3;3;3
51258;PMS7003;37327;54.254;18.504;2023-03-14T18:22:57;5;5;4
51258;PMS7003;37327;54.254;18.504;2023-03-14T18:26:17;2;2;1
51258;PMS7003;37327;54.254;18.504;2023-03-14T18:29:36;3;2;2
51258;PMS7003;37327;54.254;18.504;2023-03-14T18:32:54;2;1;1
51258;PMS7003;37327;54.254;18.504;2023-03-14T18:36:11;1;1;1
51258;PMS7003;37327;54.254;18.504;2023-03-14T18:39:29;1;1;1
51258;PMS7003;37327;54.254;18.504;2023-03-14T18:42:46;1;0;0
51258;PMS7003;37327;54.254;18.504;2023-03-14T18:46:03;0;0;0
51258;PMS7003;37327;54.254;18.504;2023-03-14T18:49:21;2;1;1
51258;PMS7003;37327;54.254;18.504;2023-03-14T18:52:38;1;1;0
51258;PMS7003;37327;54.254;18.504;2023-03-14T18:55:55;1;0;0
51258;PMS7003;37327;54.254;18.504;2023-03-14T18:59:13;1;1;0
51258;PMS7003;37327;54.254;18.504;2023-03-14T19:02:31;0;0;0
51258;PMS7003;37327;54.254;18.504;2023-03-14T19:05:49;0;0;0
51258;PMS7003;37327;54.254;18.504;2023-03-14T19:09:06;1;0;0
51258;PMS7003;37327;54.254;18.504;2023-03-14T19:12:26;0;0;0
51258;PMS7003;37327;54.254;18.504;2023-03-14T19:15:44;0;0;0
51258;PMS7003;37327;54.254;18.504;2023-03-14T19:19:01;0;0;0
51258;PMS7003;37327;54.254;18.504;2023-03-14T19:22:19;0;0;0
51258;PMS7003;37327;54.254;18.504;2023-03-14T19:25:36;0;0;0
51258;PMS7003;37327;54.254;18.504;2023-03-14T19:28:54;0;0;0
51258;PMS7003;37327;54.254;18.504;2023-03-14T19:32:11;0;0;0
51258;PMS7003;37327;54.254;18.504;2023-03-14T19:44:24;0;0;0
51258;PMS7003;37327;54.254;18.504;2023-03-14T19:47:42;0;0;0
51258;PMS7003;37327;54.254;18.504;2023-03-14T19:51:00;0;0;0
51258;PMS7003;37327;54.254;18.504;2023-03-14T19:54:18;0;0;0
51258;PMS7003;37327;54.254;18.504;2023-03-14T19:57:38;0;0;0
51258;PMS7003;37327;54.254;18.504;2023-03-14T20:00:56;0;0;0
51258;PMS7003;37327;54.254;18.504;2023-03-14T20:04:13;0;0;0
51258;PMS7003;37327;54.254;18.504;2023-03-14T20:07:31;0;0;0
51258;PMS7003;37327;54.254;18.504;2023-03-14T20:10:49;0;0;0
51258;PMS7003;37327;54.254;18.504;2023-03-14T20:14:07;0;0;0
51258;PMS7003;37327;54.254;18.504;2023-03-14T20:17:25;0;0;0
51258;PMS7003;37327;54.254;18.504;2023-03-14T20:20:44;0;0;0
51258;PMS7003;37327;54.254;18.504;2023-03-14T20:24:01;0;0;0
51258;PMS7003;37327;54.254;18.504;2023-03-14T20:27:21;0;0;0
51258;PMS7003;37327;54.254;18.504;2023-03-14T20:30:38;0;0;0
51258;PMS7003;37327;54.254;18.504;2023-03-14T20:33:58;0;0;0
51258;PMS7003;37327;54.254;18.504;2023-03-14T20:37:16;0;0;0
51258;PMS7003;37327;54.254;18.504;2023-03-14T20:40:33;0;0;0
51258;PMS7003;37327;54.254;18.504;2023-03-14T20:43:50;0;0;0
51258;PMS7003;37327;54.254;18.504;2023-03-14T20:47:08;0;0;0
51258;PMS7003;37327;54.254;18.504;2023-03-14T20:50:26;0;0;0
51258;PMS7003;37327;54.254;18.504;2023-03-14T20:53:44;0;0;0
51258;PMS7003;37327;54.254;18.504;2023-03-14T20:57:01;0;0;0
51258;PMS7003;37327;54.254;18.504;2023-03-14T21:00:19;0;0;0
51258;PMS7003;37327;54.254;18.504;2023-03-14T21:03:38;0;0;0
51258;PMS7003;37327;54.254;18.504;2023-03-14T21:06:56;0;0;0
51258;PMS7003;37327;54.254;18.504;2023-03-14T21:10:14;0;0;0
51258;PMS7003;37327;54.254;18.504;2023-03-14T21:13:32;0;0;0
51258;PMS7003;37327;54.254;18.504;2023-03-14T21:16:49;0;0;0
51258;PMS7003;37327;54.254;18.504;2023-03-14T21:20:13;0;0;0
51258;PMS7003;37327;54.254;18.504;2023-03-14T21:23:32;0;0;0
51258;PMS7003;37327;54.254;18.504;2023-03-14T21:26:53;0;0;0
51258;PMS7003;37327;54.254;18.504;2023-03-14T21:30:12;0;0;0
51258;PMS7003;37327;54.254;18.504;2023-03-14T21:33:30;0;0;0
51258;PMS7003;37327;54.254;18.504;2023-03-14T21:36:48;0;0;0
51258;PMS7003;37327;54.254;18.504;2023-03-14T21:40:08;0;0;0
51258;PMS7003;37327;54.254;18.504;2023-03-14T21:43:27;0;0;0
51258;PMS7003;37327;54.254;18.504;2023-03-14T21:46:45;0;0;0
51258;PMS7003;37327;54.254;18.504;2023-03-14T21:50:02;0;0;0
51258;PMS7003;37327;54.254;18.504;2023-03-14T21:53:20;0;0;0
51258;PMS7003;37327;54.254;18.504;2023-03-14T21:56:44;0;0;0
51258;PMS7003;37327;54.254;18.504;2023-03-14T22:00:02;0;0;0
51258;PMS7003;37327;54.254;18.504;2023-03-14T22:03:21;0;0;0
51258;PMS7003;37327;54.254;18.504;2023-03-14T22:06:39;0;0;0
51258;PMS7003;37327;54.254;18.504;2023-03-14T22:09:56;0;0;0
51258;PMS7003;37327;54.254;18.504;2023-03-14T22:13:14;0;0;0
51258;PMS7003;37327;54.254;18.504;2023-03-14T22:16:31;0;0;0
51258;PMS7003;37327;54.254;18.504;2023-03-14T22:19:49;0;0;0
51258;PMS7003;37327;54.254;18.504;2023-03-14T22:23:06;0;0;0
51258;PMS7003;37327;54.254;18.504;2023-03-14T22:26:24;0;0;0
51258;PMS7003;37327;54.254;18.504;2023-03-14T22:29:42;0;0;0
51258;PMS7003;37327;54.254;18.504;2023-03-14T22:32:59;0;0;0
51258;PMS7003;37327;54.254;18.504;2023-03-14T22:36:16;0;0;0
51258;PMS7003;37327;54.254;18.504;2023-03-14T22:39:33;0;0;0
51258;PMS7003;37327;54.254;18.504;2023-03-14T22:42:51;0;0;0
51258;PMS7003;37327;54.254;18.504;2023-03-14T22:46:09;1;0;0
51258;PMS7003;37327;54.254;18.504;2023-03-14T22:49:26;0;0;0
51258;PMS7003;37327;54.254;18.504;2023-03-14T22:52:46;0;0;0
51258;PMS7003;37327;54.254;18.504;2023-03-14T22:56:04;0;0;0
51258;PMS7003;37327;54.254;18.504;2023-03-14T22:59:22;0;0;0
51258;PMS7003;37327;54.254;18.504;2023-03-14T23:02:40;0;0;0
51258;PMS7003;37327;54.254;18.504;2023-03-14T23:05:57;0;0;0
51258;PMS7003;37327;54.254;18.504;2023-03-14T23:09:15;0;0;0
51258;PMS7003;37327;54.254;18.504;2023-03-14T23:12:33;0;0;0
51258;PMS7003;37327;54.254;18.504;2023-03-14T23:15:50;0;0;0
51258;PMS7003;37327;54.254;18.504;2023-03-14T23:19:07;0;0;0
51258;PMS7003;37327;54.254;18.504;2023-03-14T23:22:27;0;0;0
51258;PMS7003;37327;54.254;18.504;2023-03-14T23:25:48;0;0;0
51258;PMS7003;37327;54.254;18.504;2023-03-14T23:29:06;0;0;0
51258;PMS7003;37327;54.254;18.504;2023-03-14T23:32:23;0;0;0
51258;PMS7003;37327;54.254;18.504;2023-03-14T23:35:40;0;0;0
51258;PMS7003;37327;54.254;18.504;2023-03-14T23:38:57;0;0;0
51258;PMS7003;37327;54.254;18.504;2023-03-14T23:42:14;0;0;0
51258;PMS7003;37327;54.254;18.504;2023-03-14T23:45:32;0;0;0